TRAVEL WEATHER INFO - USA

NOAA Site Locator - Search for Station Information

CITY Forecast Link METAR Identifier Last Updated Temperature Dew Point Humidity Pressure Wind Direction Wind Speed Wind Gust Weather Rain/hr Google Maps
Albuqueque WEATHER KABQ 03/22/2019 18:52 57.2 12.2 17 29.98 W 18 25 Broken Clouds --- Albuquerque, NM Map
Anchorage WEATHER PAED 03/22/2019 17:56 41.0 35.6 81 29.56 W 3 3 Broken Clouds --- Anchorage, AK Map
Atlanta WEATHER KATL 03/22/2019 18:52 64.4 28.4 26 30.02 WNW 11 11 Few Clouds --- ATLANTA, GA Map
Birmingham WEATHER KBHM 03/22/2019 18:53 68.0 28.4 23 30.10 W 11 11 Clear --- Birmingham, AL Map
Boston WEATHER KBOS 03/22/2019 18:54 42.8 33.8 70 29.12 W 17 31 Overcast 0.00 BOSTON, MA Map
Cheyenne WEATHER KCYS 03/22/2019 18:53 41.0 35.6 81 29.92 NNE 11 11 Overcast --- Cheyenne, WY Map
Chicago O'Hare WEATHER KORD 03/22/2019 18:51 37.4 24.8 60 30.20 E 11 11 Few Clouds --- CHICAGO, IL Map
Colorado Springs WEATHER KCOS 03/22/2019 18:54 46.4 28.4 49 29.89 SE 11 11 Overcast --- Colo. Springs, CO Map
Dallas WEATHER KADS 03/22/2019 18:55 75.2 39.2 27 30.04 SE 13 19 Clear --- Dallas, TX Map
Denver WEATHER KDEN 03/22/2019 18:53 51.8 28.4 40 29.84 SSW 11 11 Broken Clouds --- DENVER, CO Map
Detroit WEATHER KDET 03/22/2019 18:53 41.0 19.4 41 29.99 N 19 28 Overcast --- Detroit, MI Map
Dover WEATHER KDOV 03/22/2019 16:56 48.2 32.0 53 29.54 W 16 25 Overcast 0.00 DOVER, DE Map
Fort Lauderdale WEATHER KFXE 03/22/2019 18:53 73.4 37.4 27 30.04 NNW 8 8 Clear --- Fort Lauderdale, FL Map
Honolulu WEATHER PHNL 03/22/2019 18:53 84.2 57.2 40 30.10 NNE 9 19 Scattered Clouds --- Honolulu, HI Map
JFK Airport WEATHER KJFK 03/22/2019 18:51 46.4 28.4 49 29.43 W 24 36 Scattered Clouds --- JFK Airport, NYC Map
Key West WEATHER KEYW 03/22/2019 18:53 69.8 51.8 53 30.08 N 10 10 Clear --- Key West, FL Map
Los Angeles WEATHER KLAX 03/22/2019 18:53 62.6 48.2 59 30.14 WSW 14 14 Scattered Clouds --- Los Angeles, CA Map
Louisville WEATHER KSDF 03/22/2019 18:56 53.6 24.8 32 30.09 NNW 14 14 Few Clouds --- Louisville, KY Map
Minneapolis WEATHER KMSP 03/22/2019 18:53 48.2 17.6 29 30.21 NE 9 9 Clear --- Minneapolis, MN Map
Morgantown WEATHER KMGW 03/22/2019 18:53 37.4 23.0 56 29.88 WNW 10 23 Overcast --- Morgantown, WV Map
New Orleans WEATHER KNEW 03/22/2019 18:53 66.2 48.2 52 30.11 W 4 4 Clear --- New Orleans, LA Map
New York City WEATHER KNYC 03/22/2019 18:51 46.4 26.6 46 29.44 W 10 25 Clear --- New York, NY Map
Omaha WEATHER KOMA 03/22/2019 18:52 60.8 30.2 31 30.13 NNW 5 5 Broken Clouds --- Omaha, NE Map
Philadelphia WEATHER KPHL 03/22/2019 18:54 42.8 33.8 70 29.58 WNW 23 31 Overcast 0.03 Philadelphia, PA Map
Pittsburgh WEATHER KPIT 03/22/2019 18:51 33.8 30.2 86 29.86 WNW 14 32 0.00 Pittsburgh, PA Map
Seattle WEATHER KSEA 03/22/2019 18:53 55.4 44.6 67 29.92 SSW 24 17 Overcast 0.00 Seattle, WA Map
San Francisco WEATHER KSFO 03/22/2019 18:56 55.4 51.8 88 30.15 SE 9 9 Overcast 0.01 San Francisco, CA Map
Washington DC WEATHER KDCA 03/22/2019 18:52 48.2 28.4 46 29.71 NW 21 32 Broken Clouds 0.00 Washington, DC Map